Saint Johnsbury, VT (05819)

1:46 AM EDT on September 02, 2014 (GMT -0400)
Split Rock Farm | Change Station
CLOSE
Current Station
Personal Weather Station
Location: Waterford, VT
Elevation: 863 ft
Nearby Weather Stations

Elev 863 ft 44.35 °N, 71.95 °W | Updated 5 minutes ago

Partly Cloudy
Partly Cloudy
60.5 °F
Feels Like 60.5 °F
N
0.0
Wind Variable Wind from North
Gusts 0.0 mph

Today
High -- | Low -- °F
--% Chance of Precip.
Yesterday
High -- | Low -- °F
Precip. -- in
6:11 AM 7:22 PM
Waxing Crescent, 48% visible
Pressure 29.94 in
Visibility 7.0 miles
Clouds Clear
Dew Point 60 °F
Humidity 98%
Rainfall 0.00 in
Snow Depth Not available.
UV 0 out of 12
Pollen 6.70 out of 12
Ozone Good
PM2.5 Good
Flu Activity Not available.
METAR KHIE 020452Z AUTO 00000KT 7SM CLR 14/13 A2995 RMK AO2 SLP139 T01440133 402830144 $

More Conditions Fewer Conditions

Pressure 29.94 in
Visibility 7.0 miles
Clouds Clear
Dew Point 60 °F
Humidity 98%
Rainfall 0.00 in
Snow Depth Not available.
UV 0 out of 12
Pollen 6.70 out of 12
Ozone Good
PM2.5 Good
Flu Activity Not available.
METAR KHIE 020452Z AUTO 00000KT 7SM CLR 14/13 A2995 RMK AO2 SLP139 T01440133 402830144 $

More Conditions Fewer Conditions

10-Day Weather Forecast

Almanac

Astronomy

Sep. 02, 2014 Rise Set
Actual Time 6:11 AM EDT 7:22 PM EDT
Civil Twilight 5:41 AM EDT 7:52 PM EDT
Nautical Twilight 5:06 AM EDT 8:28 PM EDT
Astronomical Twilight 4:28 AM EDT 9:06 PM EDT
Moon 2:09 PM EDT 11:57 PM EDT
Length of Visible Light 14h 10m
Length of Day
13h 10m
Tomorrow will be 2m 58s shorter.
Waxing Crescent, 48% of the Moon is Illuminated
Today
Waxing Crescent
Sep 2
First Quarter
Sep 8
Full
Sep 15
Last Quarter
Sep 24
New

Today's Extremes

State Highs State Lows

Community

WunderPhotos

Upload Photos

1,749,579 photos uploaded!

WunderBlogs® & News

Nearby

Air Quality

  Air Quality AQ Index Pollutant
Yesterday Good
OZONE
Yesterday Good
PM2.5
Current Good
PM2.5
Current Good
OZONE
Tuesday Moderate
PM2.5

Snow Depth

Station Depth Elevation
No new snow has been reported.

Earthquake Activity

City Distance Mag. Time & Date
No recent earthquake activity has been reported nearby.
Minimum magnitude displayed is 2.5.

Coastal Water Temperatures

Place Temperature
No Stations Reporting

Nearby Weather Stations